KEOK/EOK METAR and TAF weather

Enter ICAO airport designator
Station Type Date Time Source
KEOK METAR 2022/01/28 00:15 UTC NOAA

KEOK 280015Z AUTO 29007KT 10SM SCT050 SCT060 00/M03 A3025 RMK A01


Station Type Date Time Source
KEOK Decoded METAR 2022/01/28 00:15 UTC NOAA

Keokuk Municipal, IA, United States (KEOK) 40-28N 091-26W
Jan 27, 2022 - 07:15 PM EST / 2022.01.28 0015 UTC
Wind: from the WNW (290 degrees) at 8 MPH (7 KT):0
Visibility: 10 mile(s):0
Sky conditions: partly cloudy
Temperature: 32 F (0 C)
Windchill: 24 F (-4 C):1
Dew Point: 26 F (-3 C)
Relative Humidity: 80%
Pressure (altimeter): 30.25 in. Hg (1024 hPa)
ob: KEOK 280015Z AUTO 29007KT 10SM SCT050 SCT060 00/M03 A3025 RMK A01
cycle: 0

Station Type Date Time Source
KEOK TAF UTC NOAA

Error!

Example: see airport list